Aeroporto :
LOGIN :

Iscrizione | Disclaimer

   EN    FR    IT 

 










Sommario :    VFR   VFR Marginale   IFR   IFR Intensivo   IFR Molto Intensivo
Visibilità : 
Base nubi : 
>= 8 km
>= 3000ft
5 / 8 km
1000 / 3000 ft
1500m / 5 km
500 / 1000 ft
800 / 1500m
200 / 500 ft
< 800m
< 200 ft
Simboli :   Temporali  Nebbia  Neve Forte  Precipitazioni Forti  Vento > 20 kt
SIGMETs :   Varie  Temporali  Ghiacco  Turbolenza  Onda orograficha  Ceneri Vulcaniche






- Altitudine del aeroporto : 20 ft
- Codice IATA : OIZ


DTTB - Sidi Ahmed Air Base

ULTIMO METAR :
  • 081000Z 12004KT 020V170 6000 SCT020 17/14 Q1025

METARs OBSOLETI :
  • 080900Z 00000KT 0500 FG SCT020 14/13 Q1025
  • 080800Z 00000KT 0100 FG SCT020 12/11 Q1025
  • 080700Z 00000KT 0300 FG SCT020 10/09 Q1025

TAF TAF DTTB
Valido dal 08 a 10 ore il 08 a 19 ore UTC


080900Z 0810/0819 23003KT 8000 SCT020



MetMap, La meteo Aeronautica in un colpo d'occhio ! - Copyright ORBIFLY Dicembre 2007 - Disclaimer

ORBIFLY MET'MAP TEAM :

Programmazione e sviluppo : Alexandra Zaïnal
Concezione : Baudouin d'Aumeries
Aiuto per la programmazione : Marc-Olivier Méhu
Supporto tecnico e logistico : Manuel Goepfert
Aiuto per la traduzione : Arnaldo La Scala

Contatto : metmap@orbifly.com




FONTI E CREDITI :

   NOAA